sensor_id;sensor_type;location;lat;lon;timestamp;pressure;altitude;pressure_sealevel;temperature;humidity
55490;BME280;44029;52.956;4.772;2023-06-10T00:00:39;101793.75;;;20.26;100.00
55490;BME280;44029;52.956;4.772;2023-06-10T00:03:06;101782.84;;;20.30;100.00
55490;BME280;44029;52.956;4.772;2023-06-10T00:05:32;101798.16;;;20.33;100.00
55490;BME280;44029;52.956;4.772;2023-06-10T00:08:00;101791.41;;;20.39;100.00
55490;BME280;44029;52.956;4.772;2023-06-10T00:10:26;101798.84;;;20.19;100.00
55490;BME280;44029;52.956;4.772;2023-06-10T00:12:52;101800.72;;;20.24;100.00
55490;BME280;44029;52.956;4.772;2023-06-10T00:15:17;101796.06;;;20.19;100.00
55490;BME280;44029;52.956;4.772;2023-06-10T00:17:43;101793.38;;;20.38;100.00
55490;BME280;44029;52.956;4.772;2023-06-10T00:20:09;101791.13;;;20.40;100.00
55490;BME280;44029;52.956;4.772;2023-06-10T00:22:37;101792.63;;;20.27;100.00
55490;BME280;44029;52.956;4.772;2023-06-10T00:25:04;101795.63;;;20.36;100.00
55490;BME280;44029;52.956;4.772;2023-06-10T00:27:30;101797.09;;;20.28;100.00
55490;BME280;44029;52.956;4.772;2023-06-10T00:30:01;101797.03;;;20.34;100.00
55490;BME280;44029;52.956;4.772;2023-06-10T00:32:27;101791.13;;;20.40;100.00
55490;BME280;44029;52.956;4.772;2023-06-10T00:34:52;101790.78;;;20.47;100.00
55490;BME280;44029;52.956;4.772;2023-06-10T00:37:17;101795.13;;;20.58;100.00
55490;BME280;44029;52.956;4.772;2023-06-10T00:39:43;101793.66;;;20.66;100.00
55490;BME280;44029;52.956;4.772;2023-06-10T00:42:08;101799.31;;;20.56;100.00
55490;BME280;44029;52.956;4.772;2023-06-10T00:44:35;101799.91;;;20.23;100.00
55490;BME280;44029;52.956;4.772;2023-06-10T00:47:01;101796.44;;;20.37;100.00
55490;BME280;44029;52.956;4.772;2023-06-10T00:49:27;101802.47;;;20.49;100.00
55490;BME280;44029;52.956;4.772;2023-06-10T00:51:52;101793.75;;;20.56;100.00
55490;BME280;44029;52.956;4.772;2023-06-10T00:54:18;101803.03;;;20.17;100.00
55490;BME280;44029;52.956;4.772;2023-06-10T00:56:44;101798.84;;;20.19;100.00
55490;BME280;44029;52.956;4.772;2023-06-10T00:59:10;101797.31;;;20.03;100.00
55490;BME280;44029;52.956;4.772;2023-06-10T01:01:36;101792.78;;;20.12;100.00
55490;BME280;44029;52.956;4.772;2023-06-10T01:04:03;101792.69;;;20.22;100.00
55490;BME280;44029;52.956;4.772;2023-06-10T01:09:02;101802.19;;;20.16;100.00
55490;BME280;44029;52.956;4.772;2023-06-10T01:11:41;101796.53;;;20.56;100.00
55490;BME280;44029;52.956;4.772;2023-06-10T01:14:09;101803.28;;;20.20;100.00
55490;BME280;44029;52.956;4.772;2023-06-10T01:16:34;101790.28;;;20.11;100.00
55490;BME280;44029;52.956;4.772;2023-06-10T01:19:02;101794.72;;;20.12;100.00
55490;BME280;44029;52.956;4.772;2023-06-10T01:21:28;101799.63;;;19.91;100.00
55490;BME280;44029;52.956;4.772;2023-06-10T01:23:54;101799.31;;;20.26;100.00
55490;BME280;44029;52.956;4.772;2023-06-10T01:26:25;101800.78;;;20.48;100.00
55490;BME280;44029;52.956;4.772;2023-06-10T01:29:16;101805.91;;;20.36;100.00
55490;BME280;44029;52.956;4.772;2023-06-10T01:31:48;101806.75;;;20.36;100.00
55490;BME280;44029;52.956;4.772;2023-06-10T01:34:17;101805.19;;;20.25;100.00
55490;BME280;44029;52.956;4.772;2023-06-10T01:36:48;101803.97;;;20.36;100.00
55490;BME280;44029;52.956;4.772;2023-06-10T01:39:15;101801.47;;;20.35;100.00
55490;BME280;44029;52.956;4.772;2023-06-10T01:41:42;101797.66;;;19.91;100.00
55490;BME280;44029;52.956;4.772;2023-06-10T01:44:07;101792.66;;;19.93;100.00
55490;BME280;44029;52.956;4.772;2023-06-10T01:46:33;101797.31;;;20.03;100.00
55490;BME280;44029;52.956;4.772;2023-06-10T01:48:58;101798.31;;;19.83;100.00
55490;BME280;44029;52.956;4.772;2023-06-10T01:51:24;101793.53;;;19.88;100.00
55490;BME280;44029;52.956;4.772;2023-06-10T01:53:49;101797.22;;;20.13;100.00
55490;BME280;44029;52.956;4.772;2023-06-10T01:56:14;101808.78;;;19.91;100.00
55490;BME280;44029;52.956;4.772;2023-06-10T01:58:43;101809.06;;;19.89;100.00
55490;BME280;44029;52.956;4.772;2023-06-10T02:01:09;101812.28;;;20.07;100.00
55490;BME280;44029;52.956;4.772;2023-06-10T02:03:34;101799.84;;;19.99;100.00
55490;BME280;44029;52.956;4.772;2023-06-10T02:06:00;101804.66;;;19.88;100.00
55490;BME280;44029;52.956;4.772;2023-06-10T02:08:25;101816.03;;;19.92;100.00
55490;BME280;44029;52.956;4.772;2023-06-10T02:10:52;101811.00;;;19.94;100.00
55490;BME280;44029;52.956;4.772;2023-06-10T02:13:18;101802.78;;;19.79;100.00
55490;BME280;44029;52.956;4.772;2023-06-10T02:15:43;101804.97;;;19.82;100.00
55490;BME280;44029;52.956;4.772;2023-06-10T02:18:08;101804.72;;;19.78;100.00
55490;BME280;44029;52.956;4.772;2023-06-10T02:20:35;101805.59;;;19.68;100.00
55490;BME280;44029;52.956;4.772;2023-06-10T02:23:00;101811.06;;;19.84;100.00
55490;BME280;44029;52.956;4.772;2023-06-10T02:25:26;101808.19;;;19.99;100.00
55490;BME280;44029;52.956;4.772;2023-06-10T02:27:51;101808.78;;;19.91;100.00
55490;BME280;44029;52.956;4.772;2023-06-10T02:30:16;101815.34;;;19.66;100.00
55490;BME280;44029;52.956;4.772;2023-06-10T02:32:42;101815.25;;;19.86;100.00
55490;BME280;44029;52.956;4.772;2023-06-10T02:35:07;101811.63;;;19.86;100.00
55490;BME280;44029;52.956;4.772;2023-06-10T02:37:33;101816.69;;;19.79;100.00
55490;BME280;44029;52.956;4.772;2023-06-10T02:39:58;101813.94;;;19.68;100.00
55490;BME280;44029;52.956;4.772;2023-06-10T02:42:24;101811.41;;;19.77;100.00
55490;BME280;44029;52.956;4.772;2023-06-10T02:44:49;101812.53;;;19.71;100.00
55490;BME280;44029;52.956;4.772;2023-06-10T02:47:14;101807.00;;;19.66;100.00
55490;BME280;44029;52.956;4.772;2023-06-10T02:49:40;101806.69;;;19.78;100.00
55490;BME280;44029;52.956;4.772;2023-06-10T02:52:06;101808.38;;;19.74;100.00
55490;BME280;44029;52.956;4.772;2023-06-10T02:54:32;101809.78;;;19.66;100.00
55490;BME280;44029;52.956;4.772;2023-06-10T02:56:57;101801.72;;;19.69;100.00
55490;BME280;44029;52.956;4.772;2023-06-10T02:59:22;101804.78;;;19.73;100.00
55490;BME280;44029;52.956;4.772;2023-06-10T03:01:48;101809.31;;;19.54;100.00
55490;BME280;44029;52.956;4.772;2023-06-10T03:04:13;101805.09;;;19.61;100.00
55490;BME280;44029;52.956;4.772;2023-06-10T03:06:40;101804.03;;;19.52;100.00
55490;BME280;44029;52.956;4.772;2023-06-10T03:09:06;101804.53;;;19.59;100.00
55490;BME280;44029;52.956;4.772;2023-06-10T03:11:32;101809.44;;;19.78;100.00
55490;BME280;44029;52.956;4.772;2023-06-10T03:13:58;101802.78;;;19.79;100.00
55490;BME280;44029;52.956;4.772;2023-06-10T03:16:23;101799.53;;;19.56;100.00
55490;BME280;44029;52.956;4.772;2023-06-10T03:18:50;101799.75;;;19.70;100.00
55490;BME280;44029;52.956;4.772;2023-06-10T03:21:16;101803.06;;;19.77;100.00
55490;BME280;44029;52.956;4.772;2023-06-10T03:23:41;101799.22;;;19.68;100.00
55490;BME280;44029;52.956;4.772;2023-06-10T03:26:06;101805.59;;;19.74;100.00
55490;BME280;44029;52.956;4.772;2023-06-10T03:28:32;101816.59;;;19.89;100.00
55490;BME280;44029;52.956;4.772;2023-06-10T03:30:58;101819.09;;;20.25;100.00
55490;BME280;44029;52.956;4.772;2023-06-10T03:33:23;101819.97;;;20.20;100.00
55490;BME280;44029;52.956;4.772;2023-06-10T03:35:49;101818.19;;;20.35;100.00
55490;BME280;44029;52.956;4.772;2023-06-10T03:38:14;101815.59;;;20.43;100.00
55490;BME280;44029;52.956;4.772;2023-06-10T03:40:39;101811.91;;;20.77;100.00
55490;BME280;44029;52.956;4.772;2023-06-10T03:43:05;101818.03;;;21.03;100.00
55490;BME280;44029;52.956;4.772;2023-06-10T03:45:30;101816.88;;;21.29;100.00
55490;BME280;44029;52.956;4.772;2023-06-10T03:47:57;101809.94;;;21.26;100.00
55490;BME280;44029;52.956;4.772;2023-06-10T03:50:22;101807.72;;;21.85;100.00
55490;BME280;44029;52.956;4.772;2023-06-10T03:52:48;101823.09;;;21.83;100.00
55490;BME280;44029;52.956;4.772;2023-06-10T03:55:14;101815.28;;;20.98;100.00
55490;BME280;44029;52.956;4.772;2023-06-10T03:57:41;101816.09;;;21.47;100.00
55490;BME280;44029;52.956;4.772;2023-06-10T04:00:07;101823.84;;;21.50;100.00
55490;BME280;44029;52.956;4.772;2023-06-10T04:02:37;101816.16;;;21.80;100.00
55490;BME280;44029;52.956;4.772;2023-06-10T04:05:02;101814.34;;;21.89;100.00
55490;BME280;44029;52.956;4.772;2023-06-10T04:07:28;101814.31;;;22.08;100.00
55490;BME280;44029;52.956;4.772;2023-06-10T04:09:53;101816.53;;;22.25;100.00
55490;BME280;44029;52.956;4.772;2023-06-10T04:12:19;101818.28;;;22.21;100.00
55490;BME280;44029;52.956;4.772;2023-06-10T04:14:44;101823.56;;;21.90;100.00
55490;BME280;44029;52.956;4.772;2023-06-10T04:17:09;101826.34;;;22.55;100.00
55490;BME280;44029;52.956;4.772;2023-06-10T04:19:35;101827.53;;;22.35;100.00
55490;BME280;44029;52.956;4.772;2023-06-10T04:22:01;101828.22;;;22.60;100.00
55490;BME280;44029;52.956;4.772;2023-06-10T04:24:28;101823.31;;;22.38;100.00
55490;BME280;44029;52.956;4.772;2023-06-10T04:26:53;101826.09;;;21.67;100.00
55490;BME280;44029;52.956;4.772;2023-06-10T04:29:18;101826.47;;;21.79;100.00
55490;BME280;44029;52.956;4.772;2023-06-10T04:31:44;101829.97;;;21.71;100.00
55490;BME280;44029;52.956;4.772;2023-06-10T04:34:11;101830.47;;;21.30;100.00
55490;BME280;44029;52.956;4.772;2023-06-10T04:36:36;101824.91;;;21.54;100.00
55490;BME280;44029;52.956;4.772;2023-06-10T04:39:02;101826.13;;;21.86;100.00
55490;BME280;44029;52.956;4.772;2023-06-10T04:41:27;101818.97;;;21.37;100.00
55490;BME280;44029;52.956;4.772;2023-06-10T04:43:52;101836.56;;;21.13;100.00
55490;BME280;44029;52.956;4.772;2023-06-10T04:46:18;101827.69;;;21.30;100.00
55490;BME280;44029;52.956;4.772;2023-06-10T04:48:44;101828.09;;;21.42;100.00
55490;BME280;44029;52.956;4.772;2023-06-10T04:51:09;101832.84;;;21.23;100.00
55490;BME280;44029;52.956;4.772;2023-06-10T04:53:35;101832.91;;;20.94;100.00
55490;BME280;44029;52.956;4.772;2023-06-10T04:56:01;101835.25;;;20.81;100.00
55490;BME280;44029;52.956;4.772;2023-06-10T04:58:27;101828.34;;;20.79;100.00
55490;BME280;44029;52.956;4.772;2023-06-10T05:00:52;101835.50;;;20.85;100.00
55490;BME280;44029;52.956;4.772;2023-06-10T05:03:17;101832.41;;;21.11;100.00
55490;BME280;44029;52.956;4.772;2023-06-10T05:05:43;101843.00;;;21.33;100.00
55490;BME280;44029;52.956;4.772;2023-06-10T05:08:08;101829.88;;;20.66;100.00
55490;BME280;44029;52.956;4.772;2023-06-10T05:10:33;101836.16;;;21.25;100.00
55490;BME280;44029;52.956;4.772;2023-06-10T05:12:59;101834.78;;;21.22;100.00
55490;BME280;44029;52.956;4.772;2023-06-10T05:15:24;101828.66;;;21.45;100.00
55490;BME280;44029;52.956;4.772;2023-06-10T05:17:50;101831.81;;;21.38;100.00
55490;BME280;44029;52.956;4.772;2023-06-10T05:20:15;101835.59;;;21.85;100.00
55490;BME280;44029;52.956;4.772;2023-06-10T05:22:41;101833.13;;;21.65;100.00
55490;BME280;44029;52.956;4.772;2023-06-10T05:25:06;101834.47;;;21.48;100.00
55490;BME280;44029;52.956;4.772;2023-06-10T05:27:32;101834.28;;;21.64;100.00
55490;BME280;44029;52.956;4.772;2023-06-10T05:29:57;101847.31;;;21.25;100.00
55490;BME280;44029;52.956;4.772;2023-06-10T05:32:23;101838.47;;;21.18;100.00
55490;BME280;44029;52.956;4.772;2023-06-10T05:34:48;101835.75;;;21.13;100.00
55490;BME280;44029;52.956;4.772;2023-06-10T05:37:14;101842.63;;;20.96;100.00
55490;BME280;44029;52.956;4.772;2023-06-10T05:39:39;101844.88;;;20.94;100.00
55490;BME280;44029;52.956;4.772;2023-06-10T05:42:08;101842.25;;;21.27;100.00
55490;BME280;44029;52.956;4.772;2023-06-10T05:44:34;101845.16;;;21.17;100.00
55490;BME280;44029;52.956;4.772;2023-06-10T05:46:59;101841.72;;;21.25;100.00
55490;BME280;44029;52.956;4.772;2023-06-10T05:49:25;101844.72;;;21.91;100.00
55490;BME280;44029;52.956;4.772;2023-06-10T05:51:50;101847.75;;;22.46;100.00
55490;BME280;44029;52.956;4.772;2023-06-10T05:54:17;101839.84;;;23.37;100.00
55490;BME280;44029;52.956;4.772;2023-06-10T05:56:43;101840.28;;;24.48;100.00
55490;BME280;44029;52.956;4.772;2023-06-10T05:59:08;101838.66;;;24.78;100.00
55490;BME280;44029;52.956;4.772;2023-06-10T06:01:33;101843.25;;;24.74;100.00
55490;BME280;44029;52.956;4.772;2023-06-10T06:03:59;101838.03;;;25.30;100.00
55490;BME280;44029;52.956;4.772;2023-06-10T06:06:24;101837.63;;;26.07;100.00
55490;BME280;44029;52.956;4.772;2023-06-10T06:08:50;101844.09;;;24.83;100.00
55490;BME280;44029;52.956;4.772;2023-06-10T06:11:15;101836.91;;;25.40;100.00
55490;BME280;44029;52.956;4.772;2023-06-10T06:13:40;101844.91;;;25.99;100.00
55490;BME280;44029;52.956;4.772;2023-06-10T06:16:07;101844.34;;;24.64;100.00
55490;BME280;44029;52.956;4.772;2023-06-10T06:18:32;101844.13;;;24.52;100.00
55490;BME280;44029;52.956;4.772;2023-06-10T06:20:57;101851.19;;;24.81;100.00
55490;BME280;44029;52.956;4.772;2023-06-10T06:23:23;101844.22;;;25.18;100.00
55490;BME280;44029;52.956;4.772;2023-06-10T06:25:48;101835.63;;;26.25;100.00
55490;BME280;44029;52.956;4.772;2023-06-10T06:28:13;101836.03;;;26.53;100.00
55490;BME280;44029;52.956;4.772;2023-06-10T06:30:39;101832.59;;;26.94;100.00
55490;BME280;44029;52.956;4.772;2023-06-10T06:33:04;101832.09;;;27.22;100.00
55490;BME280;44029;52.956;4.772;2023-06-10T06:35:33;101836.81;;;27.39;100.00
55490;BME280;44029;52.956;4.772;2023-06-10T06:37:59;101831.34;;;27.85;100.00
55490;BME280;44029;52.956;4.772;2023-06-10T06:40:24;101840.56;;;26.84;100.00
55490;BME280;44029;52.956;4.772;2023-06-10T06:42:50;101839.56;;;26.32;100.00
55490;BME280;44029;52.956;4.772;2023-06-10T06:45:15;101836.75;;;26.88;100.00
55490;BME280;44029;52.956;4.772;2023-06-10T06:47:40;101844.53;;;25.83;100.00
55490;BME280;44029;52.956;4.772;2023-06-10T06:50:06;101848.75;;;24.88;100.00
55490;BME280;44029;52.956;4.772;2023-06-10T06:52:31;101853.22;;;23.90;100.00
55490;BME280;44029;52.956;4.772;2023-06-10T06:54:57;101842.72;;;25.03;100.00
55490;BME280;44029;52.956;4.772;2023-06-10T06:57:22;101837.91;;;26.31;100.00
55490;BME280;44029;52.956;4.772;2023-06-10T06:59:48;101837.56;;;26.89;100.00
55490;BME280;44029;52.956;4.772;2023-06-10T07:02:13;101839.03;;;26.39;100.00
55490;BME280;44029;52.956;4.772;2023-06-10T07:04:39;101847.00;;;25.84;100.00
55490;BME280;44029;52.956;4.772;2023-06-10T07:07:07;101842.66;;;26.48;100.00
55490;BME280;44029;52.956;4.772;2023-06-10T07:09:33;101857.28;;;27.18;100.00
55490;BME280;44029;52.956;4.772;2023-06-10T07:11:58;101854.91;;;25.65;100.00
55490;BME280;44029;52.956;4.772;2023-06-10T07:14:23;101846.31;;;25.04;100.00
55490;BME280;44029;52.956;4.772;2023-06-10T07:16:49;101857.22;;;25.63;100.00
55490;BME280;44029;52.956;4.772;2023-06-10T07:19:14;101853.13;;;26.21;100.00
55490;BME280;44029;52.956;4.772;2023-06-10T07:21:40;101851.41;;;26.64;100.00
55490;BME280;44029;52.956;4.772;2023-06-10T07:24:05;101848.69;;;26.85;100.00
55490;BME280;44029;52.956;4.772;2023-06-10T07:26:31;101859.56;;;25.70;100.00
55490;BME280;44029;52.956;4.772;2023-06-10T07:28:56;101856.22;;;26.46;100.00
55490;BME280;44029;52.956;4.772;2023-06-10T07:31:23;101853.59;;;26.97;100.00
55490;BME280;44029;52.956;4.772;2023-06-10T07:33:48;101865.81;;;25.75;100.00
55490;BME280;44029;52.956;4.772;2023-06-10T07:36:13;101865.69;;;26.07;100.00
55490;BME280;44029;52.956;4.772;2023-06-10T07:38:39;101851.00;;;25.17;100.00
55490;BME280;44029;52.956;4.772;2023-06-10T07:41:06;101861.78;;;24.93;100.00
55490;BME280;44029;52.956;4.772;2023-06-10T07:43:31;101866.00;;;23.68;100.00
55490;BME280;44029;52.956;4.772;2023-06-10T07:45:56;101869.25;;;24.97;100.00
55490;BME280;44029;52.956;4.772;2023-06-10T07:48:22;101871.19;;;24.34;100.00
55490;BME280;44029;52.956;4.772;2023-06-10T07:50:47;101863.50;;;24.48;100.00
55490;BME280;44029;52.956;4.772;2023-06-10T07:53:12;101880.66;;;24.69;100.00
55490;BME280;44029;52.956;4.772;2023-06-10T07:55:38;101878.69;;;25.10;100.00
55490;BME280;44029;52.956;4.772;2023-06-10T07:58:03;101872.06;;;25.06;100.00
55490;BME280;44029;52.956;4.772;2023-06-10T08:00:28;101875.81;;;25.33;100.00
55490;BME280;44029;52.956;4.772;2023-06-10T08:02:54;101877.59;;;26.21;100.00
55490;BME280;44029;52.956;4.772;2023-06-10T08:05:20;101871.41;;;26.54;100.00
55490;BME280;44029;52.956;4.772;2023-06-10T08:07:46;101869.88;;;26.74;100.00
55490;BME280;44029;52.956;4.772;2023-06-10T08:10:11;101875.41;;;27.38;100.00
55490;BME280;44029;52.956;4.772;2023-06-10T08:12:37;101875.53;;;26.65;100.00
55490;BME280;44029;52.956;4.772;2023-06-10T08:15:03;101870.25;;;27.41;100.00
55490;BME280;44029;52.956;4.772;2023-06-10T08:17:29;101881.78;;;27.18;100.00
55490;BME280;44029;52.956;4.772;2023-06-10T08:19:54;101864.19;;;27.81;100.00
55490;BME280;44029;52.956;4.772;2023-06-10T08:22:20;101879.13;;;27.51;100.00
55490;BME280;44029;52.956;4.772;2023-06-10T08:24:45;101877.84;;;26.63;100.00
55490;BME280;44029;52.956;4.772;2023-06-10T08:27:10;101885.84;;;27.38;100.00
55490;BME280;44029;52.956;4.772;2023-06-10T08:29:36;101884.31;;;27.02;100.00
55490;BME280;44029;52.956;4.772;2023-06-10T08:32:02;101880.97;;;27.17;100.00
55490;BME280;44029;52.956;4.772;2023-06-10T08:34:28;101888.59;;;26.61;100.00
55490;BME280;44029;52.956;4.772;2023-06-10T08:36:53;101884.16;;;26.42;100.00
55490;BME280;44029;52.956;4.772;2023-06-10T08:39:21;101884.69;;;26.36;100.00
55490;BME280;44029;52.956;4.772;2023-06-10T08:44:35;101891.13;;;26.10;100.00
55490;BME280;44029;52.956;4.772;2023-06-10T08:47:07;101895.06;;;26.53;100.00
55490;BME280;44029;52.956;4.772;2023-06-10T08:49:38;101890.63;;;26.34;100.00
55490;BME280;44029;52.956;4.772;2023-06-10T08:52:05;101886.41;;;25.44;100.00
55490;BME280;44029;52.956;4.772;2023-06-10T08:54:32;101897.16;;;24.71;100.00
55490;BME280;44029;52.956;4.772;2023-06-10T08:57:02;101893.97;;;25.26;100.00
55490;BME280;44029;52.956;4.772;2023-06-10T08:59:29;101885.59;;;25.61;100.00
55490;BME280;44029;52.956;4.772;2023-06-10T09:01:54;101892.94;;;24.91;100.00
55490;BME280;44029;52.956;4.772;2023-06-10T09:04:20;101892.09;;;25.22;100.00
55490;BME280;44029;52.956;4.772;2023-06-10T09:06:46;101894.47;;;24.97;100.00
55490;BME280;44029;52.956;4.772;2023-06-10T09:09:12;101898.94;;;25.38;100.00
55490;BME280;44029;52.956;4.772;2023-06-10T09:11:39;101894.53;;;25.72;100.00
55490;BME280;44029;52.956;4.772;2023-06-10T09:14:05;101885.81;;;25.74;100.00
55490;BME280;44029;52.956;4.772;2023-06-10T09:16:31;101890.94;;;25.80;100.00
55490;BME280;44029;52.956;4.772;2023-06-10T09:18:56;101898.81;;;25.61;100.00
55490;BME280;44029;52.956;4.772;2023-06-10T09:21:22;101900.81;;;25.78;100.00
55490;BME280;44029;52.956;4.772;2023-06-10T09:23:48;101891.91;;;25.18;100.00
55490;BME280;44029;52.956;4.772;2023-06-10T09:26:14;101897.53;;;24.78;100.00
55490;BME280;44029;52.956;4.772;2023-06-10T09:28:39;101907.94;;;24.86;100.00
55490;BME280;44029;52.956;4.772;2023-06-10T09:31:07;101904.69;;;24.62;100.00
55490;BME280;44029;52.956;4.772;2023-06-10T09:33:37;101895.16;;;24.72;100.00
55490;BME280;44029;52.956;4.772;2023-06-10T09:36:03;101899.81;;;24.54;100.00
55490;BME280;44029;52.956;4.772;2023-06-10T09:38:30;101902.31;;;24.33;100.00
55490;BME280;44029;52.956;4.772;2023-06-10T09:40:57;101893.81;;;24.01;100.00
55490;BME280;44029;52.956;4.772;2023-06-10T09:43:22;101899.00;;;23.94;100.00
55490;BME280;44029;52.956;4.772;2023-06-10T09:45:51;101899.53;;;24.19;100.00
55490;BME280;44029;52.956;4.772;2023-06-10T09:48:19;101895.22;;;24.12;100.00
55490;BME280;44029;52.956;4.772;2023-06-10T09:50:45;101897.78;;;24.23;100.00
55490;BME280;44029;52.956;4.772;2023-06-10T09:53:11;101901.22;;;24.20;100.00
55490;BME280;44029;52.956;4.772;2023-06-10T09:55:41;101897.63;;;24.28;100.00
55490;BME280;44029;52.956;4.772;2023-06-10T09:58:06;101902.69;;;24.17;100.00
55490;BME280;44029;52.956;4.772;2023-06-10T10:00:33;101905.28;;;24.36;100.00
55490;BME280;44029;52.956;4.772;2023-06-10T10:02:59;101900.94;;;24.07;100.00
55490;BME280;44029;52.956;4.772;2023-06-10T10:05:24;101899.53;;;24.19;100.00
55490;BME280;44029;52.956;4.772;2023-06-10T10:07:51;101896.41;;;24.43;100.00
55490;BME280;44029;52.956;4.772;2023-06-10T10:10:18;101900.63;;;24.31;100.00
55490;BME280;44029;52.956;4.772;2023-06-10T10:12:48;101897.91;;;24.94;100.00
55490;BME280;44029;52.956;4.772;2023-06-10T10:15:16;101893.06;;;24.77;100.00
55490;BME280;44029;52.956;4.772;2023-06-10T10:17:53;101903.56;;;24.72;100.00
55490;BME280;44029;52.956;4.772;2023-06-10T10:20:27;101897.28;;;24.97;100.00
55490;BME280;44029;52.956;4.772;2023-06-10T10:22:56;101894.25;;;23.95;100.00
55490;BME280;44029;52.956;4.772;2023-06-10T10:25:42;101902.88;;;23.84;100.00
55490;BME280;44029;52.956;4.772;2023-06-10T10:28:12;101903.66;;;23.34;100.00
55490;BME280;44029;52.956;4.772;2023-06-10T10:30:42;101898.44;;;24.06;100.00
55490;BME280;44029;52.956;4.772;2023-06-10T10:33:13;101902.66;;;23.67;100.00
55490;BME280;44029;52.956;4.772;2023-06-10T10:35:42;101904.25;;;23.59;100.00
55490;BME280;44029;52.956;4.772;2023-06-10T10:38:09;101901.31;;;23.92;100.00
55490;BME280;44029;52.956;4.772;2023-06-10T10:40:34;101895.28;;;23.99;100.00
55490;BME280;44029;52.956;4.772;2023-06-10T10:43:00;101906.47;;;23.99;100.00
55490;BME280;44029;52.956;4.772;2023-06-10T10:45:28;101904.09;;;23.92;100.00
55490;BME280;44029;52.956;4.772;2023-06-10T10:47:54;101906.06;;;23.78;100.00
55490;BME280;44029;52.956;4.772;2023-06-10T10:50:23;101894.94;;;23.50;100.00
55490;BME280;44029;52.956;4.772;2023-06-10T10:52:59;101904.06;;;23.42;100.00
55490;BME280;44029;52.956;4.772;2023-06-10T10:55:26;101904.22;;;23.73;100.00
55490;BME280;44029;52.956;4.772;2023-06-10T11:00:44;101904.88;;;23.56;100.00
55490;BME280;44029;52.956;4.772;2023-06-10T11:03:15;101892.13;;;23.64;100.00
55490;BME280;44029;52.956;4.772;2023-06-10T11:05:45;101900.09;;;23.43;100.00
55490;BME280;44029;52.956;4.772;2023-06-10T11:10:57;101898.69;;;23.18;100.00
55490;BME280;44029;52.956;4.772;2023-06-10T11:13:22;101894.00;;;23.13;100.00
55490;BME280;44029;52.956;4.772;2023-06-10T11:15:49;101898.81;;;22.80;100.00
55490;BME280;44029;52.956;4.772;2023-06-10T11:18:28;101893.31;;;23.21;100.00
55490;BME280;44029;52.956;4.772;2023-06-10T11:21:03;101889.09;;;22.91;100.00
55490;BME280;44029;52.956;4.772;2023-06-10T11:23:32;101882.22;;;23.16;100.00
55490;BME280;44029;52.956;4.772;2023-06-10T11:33:47;101887.19;;;22.72;100.00
55490;BME280;44029;52.956;4.772;2023-06-10T11:36:13;101898.22;;;22.50;100.00
55490;BME280;44029;52.956;4.772;2023-06-10T11:38:38;101906.13;;;22.29;100.00
55490;BME280;44029;52.956;4.772;2023-06-10T11:41:04;101899.03;;;22.50;100.00
55490;BME280;44029;52.956;4.772;2023-06-10T11:43:30;101898.13;;;22.55;100.00
55490;BME280;44029;52.956;4.772;2023-06-10T11:45:55;101893.13;;;22.00;100.00
55490;BME280;44029;52.956;4.772;2023-06-10T11:48:21;101893.72;;;22.16;100.00
55490;BME280;44029;52.956;4.772;2023-06-10T11:50:47;101900.38;;;22.01;100.00
55490;BME280;44029;52.956;4.772;2023-06-10T11:53:12;101890.22;;;22.43;100.00
55490;BME280;44029;52.956;4.772;2023-06-10T11:55:47;101902.19;;;22.30;100.00
55490;BME280;44029;52.956;4.772;2023-06-10T11:58:17;101887.19;;;22.26;100.00
55490;BME280;44029;52.956;4.772;2023-06-10T12:00:47;101903.25;;;22.34;100.00
55490;BME280;44029;52.956;4.772;2023-06-10T12:03:13;101887.78;;;22.04;100.00
55490;BME280;44029;52.956;4.772;2023-06-10T12:05:38;101903.56;;;22.32;100.00
55490;BME280;44029;52.956;4.772;2023-06-10T12:08:11;101897.13;;;22.32;100.00
55490;BME280;44029;52.956;4.772;2023-06-10T12:10:41;101891.97;;;22.39;100.00
55490;BME280;44029;52.956;4.772;2023-06-10T12:13:08;101900.88;;;22.22;100.00
55490;BME280;44029;52.956;4.772;2023-06-10T12:15:34;101884.44;;;22.20;100.00
55490;BME280;44029;52.956;4.772;2023-06-10T12:17:59;101890.13;;;22.15;100.00
55490;BME280;44029;52.956;4.772;2023-06-10T12:20:27;101889.38;;;22.29;100.00
55490;BME280;44029;52.956;4.772;2023-06-10T12:22:55;101889.34;;;21.72;100.00
55490;BME280;44029;52.956;4.772;2023-06-10T12:25:25;101898.41;;;22.01;100.00
55490;BME280;44029;52.956;4.772;2023-06-10T12:27:53;101888.53;;;21.90;100.00
55490;BME280;44029;52.956;4.772;2023-06-10T12:30:23;101888.44;;;22.14;100.00
55490;BME280;44029;52.956;4.772;2023-06-10T12:32:50;101887.19;;;22.07;100.00
55490;BME280;44029;52.956;4.772;2023-06-10T12:35:18;101883.09;;;21.80;100.00
55490;BME280;44029;52.956;4.772;2023-06-10T12:38:02;101881.44;;;21.98;100.00
55490;BME280;44029;52.956;4.772;2023-06-10T12:40:32;101882.72;;;21.87;100.00
55490;BME280;44029;52.956;4.772;2023-06-10T12:42:59;101895.00;;;21.67;100.00
55490;BME280;44029;52.956;4.772;2023-06-10T12:45:31;101889.34;;;21.91;100.00
55490;BME280;44029;52.956;4.772;2023-06-10T12:48:24;101893.19;;;21.95;100.00
55490;BME280;44029;52.956;4.772;2023-06-10T12:50:54;101884.94;;;21.47;100.00
55490;BME280;44029;52.956;4.772;2023-06-10T12:53:20;101883.94;;;21.80;100.00
55490;BME280;44029;52.956;4.772;2023-06-10T12:55:46;101884.66;;;21.48;100.00